Time;durP1;ratioP1;P1;durP2;ratioP2;P2;SDS_P1;SDS_P2;PMS_P1;PMS_P2;Temp;Humidity;BMP_temperature;BMP_pressure;BME280_temperature;BME280_humidity;BME280_pressure;Samples;Min_cycle;Max_cycle;Signal;HPM_P1;HPM_P2
2021/07/10 00:01:15;;;;;;;30.70;28.23;;;15.60;99.90;;;;;;4991773;28;20451;-72
2021/07/10 00:03:42;;;;;;;31.73;29.17;;;15.60;99.90;;;;;;4991678;28;20454;-72
2021/07/10 00:06:09;;;;;;;31.50;29.10;;;15.50;99.90;;;;;;4991750;28;20458;-72
2021/07/10 00:08:36;;;;;;;29.30;26.90;;;15.50;99.90;;;;;;4991527;28;20462;-72
2021/07/10 00:11:05;;;;;;;29.07;26.87;;;15.50;99.90;;;;;;4991518;28;20546;-72
2021/07/10 00:13:32;;;;;;;29.87;27.47;;;15.40;99.90;;;;;;4991371;28;20807;-72
2021/07/10 00:15:59;;;;;;;29.63;27.43;;;15.40;99.90;;;;;;4991622;28;20453;-72
2021/07/10 00:18:27;;;;;;;29.40;27.10;;;15.40;99.90;;;;;;4991610;28;20936;-72
2021/07/10 00:20:54;;;;;;;31.73;29.23;;;15.40;99.90;;;;;;4991538;28;20527;-72
2021/07/10 00:23:20;;;;;;;31.50;29.03;;;15.40;99.90;;;;;;4991334;28;20451;-72
2021/07/10 00:25:47;;;;;;;31.03;28.63;;;15.40;99.90;;;;;;4991066;28;20450;-72
2021/07/10 00:28:14;;;;;;;34.70;31.70;;;15.40;99.90;;;;;;4991324;28;21011;-72
2021/07/10 00:30:40;;;;;;;31.93;29.30;;;15.40;99.90;;;;;;4991480;28;20483;-72
2021/07/10 00:33:07;;;;;;;30.67;28.40;;;15.40;99.90;;;;;;4991195;28;20529;-73
2021/07/10 00:35:36;;;;;;;30.97;28.70;;;15.30;99.90;;;;;;4991132;28;20451;-72
2021/07/10 00:38:02;;;;;;;35.60;32.40;;;15.30;99.90;;;;;;4991109;28;20451;-72
2021/07/10 00:40:29;;;;;;;32.87;30.17;;;15.30;99.90;;;;;;4991080;28;20929;-73
2021/07/10 00:42:56;;;;;;;32.60;30.07;;;15.30;99.90;;;;;;4991238;28;20463;-72
2021/07/10 00:45:22;;;;;;;30.77;28.47;;;15.30;99.90;;;;;;4990861;28;20478;-72
2021/07/10 00:47:49;;;;;;;34.17;31.33;;;15.20;99.90;;;;;;4990812;28;20856;-73
2021/07/10 00:50:18;;;;;;;33.07;30.57;;;15.20;99.90;;;;;;4990920;28;20458;-72
2021/07/10 00:52:46;;;;;;;33.80;30.90;;;15.10;99.90;;;;;;4993047;28;20959;-72
2021/07/10 00:55:14;;;;;;;36.90;33.40;;;15.10;99.90;;;;;;4997553;28;20465;-72
2021/07/10 00:57:42;;;;;;;35.63;32.63;;;15.10;99.90;;;;;;4997540;28;20869;-72
2021/07/10 01:00:11;;;;;;;31.57;29.27;;;15.10;99.90;;;;;;4997792;28;20794;-72
2021/07/10 01:02:40;;;;;;;32.13;29.47;;;15.10;99.90;;;;;;4997377;28;20458;-71
2021/07/10 01:05:09;;;;;;;36.10;33.00;;;15.10;99.90;;;;;;4997527;28;20451;-72
2021/07/10 01:07:36;;;;;;;32.43;29.87;;;15.10;99.90;;;;;;4997643;28;20572;-71
2021/07/10 01:10:04;;;;;;;32.97;30.07;;;15.10;99.90;;;;;;4997413;28;20459;-71
2021/07/10 01:12:32;;;;;;;34.93;31.90;;;15.00;99.90;;;;;;4997273;28;20490;-71
2021/07/10 01:14:59;;;;;;;32.87;29.83;;;15.00;99.90;;;;;;4997393;28;20952;-71
2021/07/10 01:17:26;;;;;;;32.10;29.60;;;15.00;99.90;;;;;;4997507;28;20466;-71
2021/07/10 01:19:59;;;;;;;32.57;30.07;;;15.00;99.90;;;;;;4997437;28;20529;-70
2021/07/10 01:22:27;;;;;;;31.77;29.27;;;15.00;99.90;;;;;;4997463;28;20458;-71
2021/07/10 01:24:54;;;;;;;33.50;30.83;;;15.00;99.90;;;;;;4997318;28;20490;-71
2021/07/10 01:27:21;;;;;;;33.97;31.30;;;14.90;99.90;;;;;;4997231;28;20521;-71
2021/07/10 01:29:48;;;;;;;34.37;31.60;;;14.90;99.90;;;;;;4997429;28;20723;-71
2021/07/10 01:32:17;;;;;;;33.73;31.10;;;14.90;99.90;;;;;;4997118;28;20486;-72
2021/07/10 01:34:45;;;;;;;34.87;31.77;;;14.90;99.90;;;;;;4997221;28;20556;-72
2021/07/10 01:37:12;;;;;;;31.77;28.97;;;14.80;99.90;;;;;;4997196;28;20473;-72
2021/07/10 01:39:40;;;;;;;32.80;29.90;;;14.80;99.90;;;;;;4997147;28;20451;-71
2021/07/10 01:42:07;;;;;;;32.80;30.20;;;14.80;99.90;;;;;;4997089;28;20447;-72
2021/07/10 01:44:34;;;;;;;33.40;30.60;;;14.70;99.90;;;;;;4996936;28;20625;-71
2021/07/10 01:47:01;;;;;;;33.70;30.93;;;14.70;99.90;;;;;;4996860;28;20486;-71
2021/07/10 01:49:27;;;;;;;37.93;31.77;;;14.60;99.90;;;;;;4997316;28;20461;-72
2021/07/10 01:51:54;;;;;;;34.20;31.20;;;14.60;99.90;;;;;;4996822;28;20494;-72
2021/07/10 01:54:21;;;;;;;31.93;29.43;;;14.60;99.90;;;;;;4997001;28;20513;-72
2021/07/10 01:56:49;;;;;;;30.80;28.40;;;14.60;99.90;;;;;;4997015;28;20462;-72
2021/07/10 01:59:16;;;;;;;32.00;29.33;;;14.60;99.90;;;;;;4996997;28;20868;-72
2021/07/10 02:01:46;;;;;;;32.53;30.10;;;14.60;99.90;;;;;;4996925;28;20443;-71
2021/07/10 02:04:15;;;;;;;33.50;30.60;;;14.60;99.90;;;;;;4995353;28;20829;-71
2021/07/10 02:06:42;;;;;;;32.93;30.03;;;14.50;99.90;;;;;;4994070;28;20945;-72
2021/07/10 02:09:09;;;;;;;34.63;31.13;;;14.50;99.90;;;;;;4994189;28;20801;-72
2021/07/10 02:11:36;;;;;;;34.63;32.00;;;14.50;99.90;;;;;;4993906;28;20483;-72
2021/07/10 02:14:05;;;;;;;34.53;31.87;;;14.50;99.90;;;;;;4993532;28;20451;-72
2021/07/10 02:16:32;;;;;;;35.50;32.60;;;14.40;99.90;;;;;;4993599;28;20455;-72
2021/07/10 02:18:59;;;;;;;34.57;31.77;;;14.40;99.90;;;;;;4993810;28;20458;-70
2021/07/10 02:21:25;;;;;;;34.47;31.57;;;14.40;99.90;;;;;;4993789;28;20447;-70
2021/07/10 02:23:52;;;;;;;34.13;31.43;;;14.30;99.90;;;;;;4993611;28;20463;-70
2021/07/10 02:26:19;;;;;;;34.67;31.77;;;14.30;99.90;;;;;;4993335;28;20447;-70
2021/07/10 02:28:46;;;;;;;35.57;32.33;;;14.20;99.90;;;;;;4993196;28;20482;-71
2021/07/10 02:31:14;;;;;;;37.60;33.83;;;14.20;99.90;;;;;;4993534;28;20494;-70
2021/07/10 02:33:41;;;;;;;37.20;33.87;;;14.10;99.90;;;;;;4993843;28;20446;-70
2021/07/10 02:36:07;;;;;;;38.37;34.47;;;14.10;99.90;;;;;;4993443;28;20454;-70
2021/07/10 02:38:34;;;;;;;39.67;35.73;;;14.10;99.90;;;;;;4985501;28;20462;-71
2021/07/10 02:41:01;;;;;;;40.97;36.87;;;14.10;99.90;;;;;;4992879;28;20446;-71
2021/07/10 02:43:28;;;;;;;41.23;37.27;;;14.10;99.90;;;;;;4993394;28;20459;-71
2021/07/10 02:45:54;;;;;;;52.47;41.57;;;14.20;99.90;;;;;;4992956;28;20487;-71
2021/07/10 02:48:22;;;;;;;44.43;40.20;;;14.20;99.90;;;;;;4993088;28;20835;-71
2021/07/10 02:50:49;;;;;;;48.50;43.30;;;14.30;99.90;;;;;;4992894;28;20857;-71
2021/07/10 02:53:16;;;;;;;46.67;42.07;;;14.30;99.90;;;;;;4993086;28;20455;-72
2021/07/10 02:55:42;;;;;;;44.47;40.20;;;14.30;99.90;;;;;;4992847;28;20513;-71
2021/07/10 02:58:09;;;;;;;48.60;39.77;;;14.30;99.90;;;;;;4993293;28;20454;-72
2021/07/10 03:00:36;;;;;;;42.67;38.10;;;14.20;99.90;;;;;;4992834;28;20455;-71
2021/07/10 03:03:03;;;;;;;42.73;38.20;;;14.20;99.90;;;;;;4992539;28;21165;-72
2021/07/10 03:05:33;;;;;;;42.40;36.93;;;14.20;99.90;;;;;;4992898;28;20453;-71
2021/07/10 03:08:00;;;;;;;43.60;38.90;;;14.20;99.90;;;;;;4992772;28;20517;-71
2021/07/10 03:10:28;;;;;;;43.40;38.90;;;14.20;99.90;;;;;;4993131;28;20462;-71
2021/07/10 03:12:56;;;;;;;45.10;40.27;;;14.20;99.90;;;;;;4992740;28;20490;-71
2021/07/10 03:15:23;;;;;;;44.83;38.40;;;14.20;99.90;;;;;;4992152;28;20454;-71
2021/07/10 03:17:50;;;;;;;44.23;39.50;;;14.30;99.90;;;;;;4991902;28;20451;-71
2021/07/10 03:20:19;;;;;;;43.47;38.90;;;14.40;99.90;;;;;;4992467;28;20473;-71
2021/07/10 03:22:48;;;;;;;44.43;38.73;;;14.40;99.90;;;;;;4992412;28;20443;-72
2021/07/10 03:25:15;;;;;;;45.17;40.17;;;14.30;99.90;;;;;;4992249;28;20933;-72
2021/07/10 03:27:43;;;;;;;44.47;39.87;;;14.30;99.90;;;;;;4992349;28;20461;-73
2021/07/10 03:30:13;;;;;;;45.83;41.23;;;14.20;99.90;;;;;;4992679;28;20497;-73
2021/07/10 03:32:40;;;;;;;46.93;40.30;;;14.20;99.90;;;;;;4992342;28;20513;-72
2021/07/10 03:35:07;;;;;;;52.03;44.00;;;14.20;99.90;;;;;;4992249;28;20455;-70
2021/07/10 03:37:34;;;;;;;46.80;42.10;;;14.30;99.90;;;;;;4992081;28;20454;-70
2021/07/10 03:40:03;;;;;;;49.03;43.67;;;14.30;99.90;;;;;;4992314;28;20501;-71
2021/07/10 03:42:30;;;;;;;49.47;44.40;;;14.30;99.90;;;;;;4991827;28;20949;-71
2021/07/10 03:44:57;;;;;;;47.63;42.53;;;14.30;99.90;;;;;;4992148;28;20882;-70
2021/07/10 03:47:23;;;;;;;44.00;39.30;;;14.30;99.90;;;;;;4991871;28;20491;-70
2021/07/10 03:49:50;;;;;;;42.47;37.97;;;14.20;99.90;;;;;;4998302;28;20474;-71
2021/07/10 03:52:17;;;;;;;42.57;38.10;;;14.20;99.90;;;;;;5011258;28;20540;-71
2021/07/10 03:54:43;;;;;;;41.83;37.57;;;14.20;99.90;;;;;;5011589;28;20504;-71
2021/07/10 03:57:11;;;;;;;43.47;39.07;;;14.10;99.90;;;;;;5011502;28;20468;-71
2021/07/10 03:59:38;;;;;;;44.47;39.93;;;14.20;99.90;;;;;;5011524;28;20516;-70
2021/07/10 04:02:05;;;;;;;44.03;39.70;;;14.20;99.90;;;;;;5011435;28;20450;-71
2021/07/10 04:04:32;;;;;;;43.33;39.10;;;14.10;99.90;;;;;;5011594;28;20574;-71
2021/07/10 04:06:59;;;;;;;44.27;39.87;;;14.20;99.90;;;;;;5011590;28;20449;-71
2021/07/10 04:09:26;;;;;;;46.17;41.87;;;14.20;99.90;;;;;;5011358;28;20520;-71
2021/07/10 04:11:53;;;;;;;43.97;39.97;;;14.20;99.90;;;;;;5011105;28;20513;-71
2021/07/10 04:14:22;;;;;;;50.13;44.70;;;14.20;99.90;;;;;;5010990;28;20715;-72
2021/07/10 04:16:48;;;;;;;47.90;42.90;;;14.20;99.90;;;;;;5011321;28;20509;-71
2021/07/10 04:19:16;;;;;;;45.07;40.40;;;14.30;99.90;;;;;;5011202;28;20505;-71
2021/07/10 04:21:42;;;;;;;44.33;39.57;;;14.30;99.90;;;;;;5011370;28;20446;-71
2021/07/10 04:24:09;;;;;;;42.97;38.60;;;14.40;99.90;;;;;;5010783;28;20454;-72
2021/07/10 04:26:36;;;;;;;43.43;39.07;;;14.50;99.90;;;;;;5010946;28;20454;-71
2021/07/10 04:29:03;;;;;;;43.30;39.30;;;14.50;99.90;;;;;;5010820;28;20532;-72
2021/07/10 04:31:31;;;;;;;41.63;37.47;;;14.50;99.90;;;;;;5010962;28;20524;-71
2021/07/10 04:33:57;;;;;;;40.67;37.00;;;14.50;99.90;;;;;;5010976;28;20445;-71
2021/07/10 04:36:24;;;;;;;39.80;35.80;;;14.50;99.90;;;;;;5010493;28;20442;-72
2021/07/10 04:38:51;;;;;;;40.23;36.43;;;14.60;99.90;;;;;;5010542;28;20454;-71
2021/07/10 04:41:17;;;;;;;38.00;34.40;;;14.50;99.90;;;;;;5010644;28;20442;-72
2021/07/10 04:43:44;;;;;;;36.53;33.50;;;14.40;99.90;;;;;;5010688;28;20477;-72
2021/07/10 04:46:11;;;;;;;40.13;36.20;;;14.50;99.90;;;;;;5010572;28;20540;-71
2021/07/10 04:48:39;;;;;;;41.93;37.97;;;14.50;99.90;;;;;;5010696;28;20458;-71
2021/07/10 04:51:06;;;;;;;40.80;37.10;;;14.60;99.90;;;;;;5010499;28;20845;-70
2021/07/10 04:53:33;;;;;;;42.70;35.70;;;14.70;99.90;;;;;;5010589;28;20492;-71
2021/07/10 04:56:00;;;;;;;38.07;34.67;;;14.70;99.90;;;;;;5010537;28;20462;-70
2021/07/10 04:58:26;;;;;;;40.17;36.47;;;14.90;99.90;;;;;;5010578;28;20450;-71
2021/07/10 05:00:53;;;;;;;40.67;37.00;;;14.80;99.90;;;;;;5010477;28;20857;-71
2021/07/10 05:03:20;;;;;;;41.10;37.50;;;14.70;99.90;;;;;;5006640;28;20450;-71
2021/07/10 05:05:48;;;;;;;37.30;33.80;;;14.90;99.90;;;;;;5001916;28;20462;-71
2021/07/10 05:08:14;;;;;;;38.23;34.53;;;15.00;99.90;;;;;;4991062;28;20510;-71
2021/07/10 05:10:41;;;;;;;38.90;35.43;;;15.00;99.90;;;;;;4990884;28;20495;-71
2021/07/10 05:13:09;;;;;;;35.80;32.53;;;15.10;99.90;;;;;;4991016;28;20482;-72
2021/07/10 05:15:36;;;;;;;37.00;33.97;;;15.20;99.90;;;;;;5005379;28;20461;-71
2021/07/10 05:18:03;;;;;;;34.93;32.13;;;15.10;99.90;;;;;;5010573;28;20446;-71
2021/07/10 05:20:30;;;;;;;33.17;30.57;;;15.20;99.90;;;;;;5010471;28;20484;-72
2021/07/10 05:22:58;;;;;;;32.37;29.97;;;15.30;99.90;;;;;;5010678;28;20939;-72
2021/07/10 05:25:25;;;;;;;33.77;30.97;;;15.30;99.90;;;;;;5010856;28;20453;-72
2021/07/10 05:27:52;;;;;;;32.10;29.50;;;15.40;99.90;;;;;;5010376;28;20457;-71
2021/07/10 05:30:19;;;;;;;28.97;26.83;;;15.80;99.90;;;;;;5010419;28;20458;-72
2021/07/10 05:32:46;;;;;;;26.63;24.60;;;16.30;99.90;;;;;;5010529;28;20887;-72
2021/07/10 05:35:16;;;;;;;26.90;24.97;;;16.90;99.90;;;;;;5010717;28;20513;-72
2021/07/10 05:37:43;;;;;;;23.70;22.10;;;17.30;99.90;;;;;;5010550;28;20944;-72
2021/07/10 05:40:11;;;;;;;23.07;21.57;;;17.50;99.90;;;;;;5012155;28;20456;-72
2021/07/10 05:42:38;;;;;;;23.07;21.47;;;17.60;99.90;;;;;;5013937;28;20454;-73
2021/07/10 05:45:06;;;;;;;22.93;21.53;;;17.90;99.90;;;;;;5014062;28;21031;-72
2021/07/10 05:47:32;;;;;;;20.77;19.50;;;18.40;99.90;;;;;;5005703;28;20481;-72
2021/07/10 05:49:59;;;;;;;22.77;21.27;;;18.60;99.90;;;;;;5014051;28;20454;-73
2021/07/10 05:52:26;;;;;;;21.77;20.17;;;18.90;99.90;;;;;;5013875;28;20535;-73
2021/07/10 05:54:52;;;;;;;22.30;20.80;;;18.80;99.90;;;;;;5013762;28;20450;-73
2021/07/10 05:57:20;;;;;;;21.33;19.90;;;18.80;99.90;;;;;;5013821;28;20458;-74
2021/07/10 05:59:47;;;;;;;22.63;20.87;;;19.20;99.90;;;;;;5013810;28;20496;-74
2021/07/10 06:02:14;;;;;;;21.80;20.40;;;19.60;99.90;;;;;;5013840;28;21002;-74
2021/07/10 06:04:40;;;;;;;20.80;19.17;;;20.00;99.90;;;;;;5014175;28;20461;-74
2021/07/10 06:07:07;;;;;;;20.53;19.23;;;20.40;99.90;;;;;;5013612;28;20528;-73
2021/07/10 06:09:34;;;;;;;20.70;19.60;;;20.90;99.90;;;;;;5013734;28;20492;-75
2021/07/10 06:12:01;;;;;;;18.37;17.27;;;21.00;99.90;;;;;;5013521;28;20456;-74
2021/07/10 06:14:29;;;;;;;20.40;18.97;;;20.80;99.90;;;;;;5013696;28;20449;-74
2021/07/10 06:16:57;;;;;;;21.30;20.00;;;20.50;99.90;;;;;;5013813;28;20476;-74
2021/07/10 06:19:23;;;;;;;20.30;19.10;;;20.20;99.90;;;;;;5013548;28;20465;-75
2021/07/10 06:21:50;;;;;;;17.87;16.77;;;20.40;99.90;;;;;;5013459;28;20454;-75
2021/07/10 06:24:16;;;;;;;19.70;18.60;;;20.70;99.90;;;;;;5013448;28;20445;-74
2021/07/10 06:26:43;;;;;;;20.80;19.50;;;20.90;99.90;;;;;;5013065;28;20985;-75
2021/07/10 06:29:10;;;;;;;17.33;16.43;;;21.10;99.90;;;;;;5013673;28;20804;-74
2021/07/10 06:31:38;;;;;;;19.83;18.63;;;21.20;99.90;;;;;;5013230;28;20457;-74
2021/07/10 06:34:06;;;;;;;17.67;16.73;;;21.20;99.90;;;;;;5012753;28;20485;-74
2021/07/10 06:36:33;;;;;;;18.63;17.33;;;21.00;99.90;;;;;;5012899;28;20512;-74
2021/07/10 06:38:59;;;;;;;17.83;16.80;;;21.10;99.90;;;;;;5013204;28;20541;-73
2021/07/10 06:41:26;;;;;;;18.87;17.70;;;21.50;99.90;;;;;;5013117;28;20449;-73
2021/07/10 06:43:53;;;;;;;19.93;18.70;;;22.00;99.90;;;;;;5013343;28;20544;-77
2021/07/10 06:46:19;;;;;;;18.13;16.93;;;22.00;99.90;;;;;;5012845;28;20544;-75
2021/07/10 06:48:47;;;;;;;17.57;16.20;;;22.10;99.90;;;;;;5012569;28;20446;-74
2021/07/10 06:51:16;;;;;;;17.33;16.33;;;22.30;99.90;;;;;;5010543;28;20457;-75
2021/07/10 06:53:43;;;;;;;17.73;16.73;;;22.50;99.90;;;;;;5013195;28;20492;-75
2021/07/10 06:56:10;;;;;;;18.00;16.90;;;22.30;99.90;;;;;;5011298;28;20461;-76
2021/07/10 06:58:37;;;;;;;18.70;17.70;;;22.80;99.90;;;;;;5012657;28;20865;-75
2021/07/10 07:01:04;;;;;;;19.37;18.27;;;23.10;99.90;;;;;;5012783;28;20881;-75
2021/07/10 07:03:31;;;;;;;17.10;16.13;;;23.10;99.90;;;;;;5012463;28;20523;-75
2021/07/10 07:06:00;;;;;;;18.33;17.33;;;23.20;99.90;;;;;;5012991;28;20461;-75
2021/07/10 07:08:26;;;;;;;19.23;17.93;;;23.20;99.90;;;;;;5012997;28;20507;-76
2021/07/10 07:10:53;;;;;;;18.33;17.13;;;22.80;99.90;;;;;;5012699;28;20848;-74
2021/07/10 07:13:20;;;;;;;17.37;16.27;;;23.10;99.90;;;;;;5012660;28;20489;-75
2021/07/10 07:15:46;;;;;;;17.33;16.33;;;23.30;99.90;;;;;;5012600;28;20829;-75
2021/07/10 07:18:15;;;;;;;18.97;17.80;;;23.10;99.90;;;;;;5012610;28;20501;-75
2021/07/10 07:20:42;;;;;;;17.03;16.27;;;23.20;99.90;;;;;;5010889;28;20450;-75
2021/07/10 07:23:10;;;;;;;17.97;16.97;;;23.60;99.90;;;;;;5010306;28;20442;-76
2021/07/10 07:25:37;;;;;;;16.67;15.87;;;23.90;99.90;;;;;;5012369;28;20497;-76
2021/07/10 07:28:04;;;;;;;17.70;16.80;;;23.80;99.90;;;;;;5011832;28;20442;-76
2021/07/10 07:30:31;;;;;;;16.97;15.87;;;24.40;99.90;;;;;;5009448;28;20513;-75
2021/07/10 07:32:58;;;;;;;18.10;16.90;;;24.20;99.90;;;;;;5012433;28;20517;-77
2021/07/10 07:35:24;;;;;;;17.10;15.87;;;24.40;99.90;;;;;;5012492;28;20871;-75
2021/07/10 07:37:51;;;;;;;17.30;16.50;;;24.50;99.90;;;;;;5012163;28;20988;-75
2021/07/10 07:40:19;;;;;;;18.17;17.07;;;24.90;99.90;;;;;;5012040;28;20476;-76
2021/07/10 07:42:47;;;;;;;17.17;16.27;;;25.20;99.90;;;;;;5011948;28;20442;-76
2021/07/10 07:45:17;;;;;;;17.53;16.60;;;25.00;99.90;;;;;;5012187;28;20887;-75
2021/07/10 07:47:44;;;;;;;16.00;15.20;;;25.00;99.90;;;;;;5012287;28;20489;-76
2021/07/10 07:50:12;;;;;;;17.70;16.80;;;24.70;99.90;;;;;;5012305;28;20868;-76
2021/07/10 07:52:40;;;;;;;16.20;15.40;;;24.80;99.90;;;;;;5012162;28;20508;-77
2021/07/10 07:55:08;;;;;;;18.60;17.50;;;25.00;99.90;;;;;;5011984;28;20458;-77
2021/07/10 07:57:36;;;;;;;16.23;15.53;;;25.20;99.40;;;;;;5011956;28;20477;-76
2021/07/10 08:00:07;;;;;;;18.03;17.10;;;25.90;99.60;;;;;;5012098;28;20503;-76
2021/07/10 08:02:34;;;;;;;17.33;16.43;;;26.00;97.30;;;;;;5011422;28;20457;-76
2021/07/10 08:05:01;;;;;;;18.37;17.30;;;26.50;97.90;;;;;;5011852;28;20454;-76
2021/07/10 08:07:27;;;;;;;17.17;16.37;;;26.60;96.30;;;;;;5012043;28;20863;-77
2021/07/10 08:09:54;;;;;;;17.20;16.30;;;27.10;96.40;;;;;;5012040;28;20852;-76
2021/07/10 08:12:21;;;;;;;17.03;16.10;;;27.20;95.80;;;;;;5011714;28;20926;-76
2021/07/10 08:14:49;;;;;;;16.40;15.70;;;27.60;94.50;;;;;;5011719;28;20509;-76
2021/07/10 08:17:16;;;;;;;18.27;17.27;;;27.80;94.20;;;;;;5011698;28;20449;-76
2021/07/10 08:19:42;;;;;;;17.80;16.83;;;28.30;93.50;;;;;;5011887;28;20458;-76
2021/07/10 08:22:09;;;;;;;16.43;15.60;;;28.40;92.10;;;;;;5011758;28;20487;-77
2021/07/10 08:24:36;;;;;;;17.70;16.80;;;28.70;92.80;;;;;;5011509;28;20450;-78
2021/07/10 08:27:03;;;;;;;18.30;17.30;;;28.80;91.80;;;;;;5011550;28;20454;-80
2021/07/10 08:29:29;;;;;;;17.10;16.20;;;29.20;92.00;;;;;;5011425;28;20932;-76
2021/07/10 08:31:57;;;;;;;16.73;15.77;;;28.90;90.40;;;;;;5011649;28;20450;-77
2021/07/10 08:34:25;;;;;;;16.70;15.77;;;28.50;91.80;;;;;;5011429;28;20544;-75
2021/07/10 08:36:51;;;;;;;17.47;16.50;;;28.00;91.90;;;;;;5011312;28;20457;-76
2021/07/10 08:39:18;;;;;;;16.37;15.63;;;28.30;91.70;;;;;;5010827;28;20449;-77
2021/07/10 08:41:47;;;;;;;16.90;16.10;;;29.10;91.00;;;;;;5011076;28;20508;-76
2021/07/10 08:44:14;;;;;;;16.93;15.93;;;28.60;90.90;;;;;;5011126;28;20462;-76
2021/07/10 08:46:41;;;;;;;16.43;15.63;;;28.20;91.40;;;;;;5011294;28;20485;-76
2021/07/10 08:49:13;;;;;;;15.63;14.93;;;28.50;91.90;;;;;;5006870;28;20453;-77
2021/07/10 08:51:40;;;;;;;16.47;15.53;;;29.10;90.60;;;;;;5006009;28;20860;-77
2021/07/10 08:54:06;;;;;;;16.70;16.00;;;29.40;88.80;;;;;;5007397;28;20540;-78
2021/07/10 08:56:33;;;;;;;16.13;15.43;;;29.40;88.40;;;;;;5002904;28;20462;-78
2021/07/10 08:59:00;;;;;;;16.50;15.60;;;29.90;87.50;;;;;;5011120;28;20508;-77
2021/07/10 09:01:27;;;;;;;16.43;15.67;;;29.90;85.10;;;;;;5011234;28;20489;-76
2021/07/10 09:03:54;;;;;;;16.33;15.50;;;29.40;86.10;;;;;;5011375;28;20450;-76
2021/07/10 09:06:22;;;;;;;15.10;14.40;;;29.30;87.50;;;;;;5011147;28;20454;-76
2021/07/10 09:08:53;;;;;;;14.50;13.90;;;29.90;83.90;;;;;;5011031;28;20594;-76
2021/07/10 09:11:20;;;;;;;13.90;13.30;;;29.30;83.30;;;;;;5010990;28;20458;-76
2021/07/10 09:13:48;;;;;;;15.20;14.60;;;29.80;81.50;;;;;;5012065;28;20536;-77
2021/07/10 09:16:16;;;;;;;16.10;15.40;;;29.70;82.90;;;;;;5014386;28;20498;-76
2021/07/10 09:18:46;;;;;;;17.53;16.63;;;29.70;82.40;;;;;;5014595;28;20461;-77
2021/07/10 09:21:15;;;;;;;15.67;15.07;;;30.40;81.10;;;;;;5014939;28;20795;-77
2021/07/10 09:23:45;;;;;;;14.60;14.07;;;31.20;78.10;;;;;;5015044;28;20826;-77
2021/07/10 09:26:24;;;;;;;14.50;14.00;;;31.30;72.00;;;;;;5014995;28;20509;-77
2021/07/10 09:29:13;;;;;;;15.27;14.60;;;30.80;74.70;;;;;;5014824;28;20449;-76
2021/07/10 09:31:43;;;;;;;15.47;14.77;;;30.60;76.20;;;;;;5008838;28;20544;-77
2021/07/10 09:34:12;;;;;;;13.70;13.20;;;30.70;77.70;;;;;;5014822;28;20551;-77
2021/07/10 09:36:51;;;;;;;14.40;13.70;;;30.70;74.10;;;;;;5014713;28;20480;-76
2021/07/10 09:39:20;;;;;;;15.37;14.77;;;30.20;72.70;;;;;;5014499;28;20461;-76
2021/07/10 09:41:47;;;;;;;14.00;13.50;;;29.20;76.00;;;;;;5014524;28;20450;-76
2021/07/10 09:44:15;;;;;;;15.00;14.40;;;29.70;74.80;;;;;;5014516;28;20808;-76
2021/07/10 09:46:43;;;;;;;14.10;13.53;;;30.50;71.10;;;;;;5014424;28;20485;-74
2021/07/10 09:49:29;;;;;;;14.23;13.67;;;30.70;68.50;;;;;;5014494;28;20449;-75
2021/07/10 09:52:05;;;;;;;14.03;13.43;;;30.60;70.70;;;;;;5014650;28;20479;-76
2021/07/10 09:54:35;;;;;;;14.30;13.50;;;30.40;70.40;;;;;;5014117;28;20492;-76
2021/07/10 09:57:05;;;;;;;13.57;13.00;;;30.60;71.20;;;;;;5014174;28;20457;-75
2021/07/10 09:59:37;;;;;;;13.33;12.83;;;30.80;70.20;;;;;;5013958;28;20484;-77
2021/07/10 10:02:10;;;;;;;14.50;14.00;;;31.20;69.10;;;;;;5014023;28;20540;-76
2021/07/10 10:04:37;;;;;;;14.47;13.87;;;31.90;67.60;;;;;;5013959;28;20528;-76
2021/07/10 10:07:11;;;;;;;14.27;13.60;;;32.60;65.20;;;;;;5013713;28;20450;-77
2021/07/10 10:09:39;;;;;;;15.57;14.73;;;33.80;61.50;;;;;;5013778;28;20549;-78
2021/07/10 10:12:09;;;;;;;14.10;13.60;;;34.20;58.40;;;;;;5013850;28;20476;-77
2021/07/10 10:14:41;;;;;;;14.70;14.13;;;33.80;59.40;;;;;;5013674;28;20913;-77
2021/07/10 10:17:08;;;;;;;14.40;13.60;;;32.50;61.10;;;;;;5013755;28;20507;-78
2021/07/10 10:19:36;;;;;;;14.17;13.67;;;32.80;60.80;;;;;;5013510;28;20508;-78
2021/07/10 10:22:06;;;;;;;14.90;14.20;;;33.50;60.10;;;;;;5013543;28;20449;-78
2021/07/10 10:24:33;;;;;;;13.73;13.23;;;34.70;58.70;;;;;;5011639;28;20488;-78
2021/07/10 10:27:02;;;;;;;13.27;12.87;;;35.10;56.30;;;;;;5012441;28;20457;-78
2021/07/10 10:29:29;;;;;;;14.40;13.90;;;35.00;56.30;;;;;;5011022;28;20484;-77
2021/07/10 10:31:58;;;;;;;15.33;14.73;;;35.00;55.40;;;;;;5013539;28;20489;-78
2021/07/10 10:34:26;;;;;;;14.83;14.33;;;35.70;54.30;;;;;;5013435;28;20486;-77
2021/07/10 10:36:54;;;;;;;15.03;14.53;;;36.30;52.30;;;;;;5013324;28;20454;-78
2021/07/10 10:39:23;;;;;;;14.10;13.60;;;36.10;52.30;;;;;;5013163;28;20462;-78
2021/07/10 10:41:52;;;;;;;15.17;14.67;;;36.30;51.70;;;;;;5013202;28;20456;-77
2021/07/10 10:44:21;;;;;;;14.53;14.03;;;36.30;51.00;;;;;;5013734;28;20527;-76
2021/07/10 10:46:51;;;;;;;14.87;14.27;;;35.60;51.90;;;;;;5013038;28;21299;-76
2021/07/10 10:49:38;;;;;;;14.60;14.10;;;35.80;51.80;;;;;;5013077;28;21002;-76
2021/07/10 10:52:27;;;;;;;14.67;14.17;;;35.10;52.10;;;;;;5012863;28;20708;-76
2021/07/10 10:54:56;;;;;;;13.70;13.30;;;33.70;53.20;;;;;;5012830;28;20486;-76
2021/07/10 10:57:48;;;;;;;15.77;14.87;;;33.10;54.70;;;;;;5012816;28;20963;-76
2021/07/10 11:00:29;;;;;;;15.00;14.30;;;34.60;53.30;;;;;;4994244;28;20969;-76
2021/07/10 11:02:58;;;;;;;14.80;14.20;;;35.20;52.60;;;;;;5012989;28;20540;-76
2021/07/10 11:05:46;;;;;;;13.87;13.47;;;35.70;50.50;;;;;;5012901;28;20449;-76
2021/07/10 11:08:34;;;;;;;14.27;13.67;;;35.10;50.90;;;;;;5012911;28;20477;-76
2021/07/10 11:11:35;;;;;;;14.50;13.90;;;34.10;51.50;;;;;;5012578;28;20930;-76
2021/07/10 11:14:17;;;;;;;14.40;13.90;;;34.30;53.70;;;;;;4928982;29;20516;-75
2021/07/10 11:17:12;;;;;;;14.77;14.07;;;35.20;50.80;;;;;;5004314;28;20468;-75
2021/07/10 11:19:55;;;;;;;14.50;14.00;;;34.70;51.50;;;;;;4994958;28;20461;-76
2021/07/10 11:23:01;;;;;;;15.00;14.40;;;34.60;51.00;;;;;;5012344;28;20874;-76
2021/07/10 11:26:06;;;;;;;13.83;13.40;;;33.20;51.40;;;;;;5012418;28;20966;-76
2021/07/10 11:28:55;;;;;;;14.33;13.83;;;32.60;52.80;;;;;;5012374;28;20472;-76
2021/07/10 11:31:27;;;;;;;14.63;14.03;;;33.50;52.80;;;;;;5012279;28;20533;-76
2021/07/10 11:34:04;;;;;;;14.50;14.00;;;34.20;51.10;;;;;;5012336;28;20564;-76
2021/07/10 11:36:56;;;;;;;15.53;14.93;;;35.00;50.80;;;;;;5011786;28;20462;-77
2021/07/10 11:40:00;;;;;;;15.87;15.27;;;35.50;51.30;;;;;;5012582;28;20501;-76
2021/07/10 11:42:45;;;;;;;16.20;15.60;;;37.30;48.70;;;;;;5012189;28;20613;-76
2021/07/10 11:45:26;;;;;;;15.50;14.80;;;36.20;48.60;;;;;;5011949;28;20466;-76
2021/07/10 11:47:57;;;;;;;15.63;14.97;;;34.70;50.80;;;;;;5012159;28;20449;-77
2021/07/10 11:50:28;;;;;;;14.57;14.07;;;34.20;51.40;;;;;;5012096;28;20454;-76
2021/07/10 11:52:56;;;;;;;15.50;15.00;;;34.50;51.50;;;;;;5011897;28;20461;-78
2021/07/10 11:55:24;;;;;;;15.13;14.53;;;33.80;53.40;;;;;;5011756;28;20481;-75
2021/07/10 11:57:51;;;;;;;16.60;15.90;;;32.50;55.80;;;;;;5011816;28;21022;-74
2021/07/10 12:00:18;;;;;;;15.37;14.83;;;31.60;57.50;;;;;;5011680;28;21189;-74
2021/07/10 12:02:44;;;;;;;14.53;14.03;;;30.30;60.90;;;;;;5011808;28;20970;-74
2021/07/10 12:05:13;;;;;;;15.60;15.00;;;29.60;63.10;;;;;;5011708;28;20864;-75
2021/07/10 12:07:42;;;;;;;14.80;14.20;;;30.20;63.00;;;;;;5011664;28;20446;-74
2021/07/10 12:10:14;;;;;;;15.27;14.57;;;30.80;61.20;;;;;;5011777;28;20863;-75
2021/07/10 12:12:49;;;;;;;13.73;13.13;;;30.50;62.50;;;;;;5011836;28;20450;-75
2021/07/10 12:15:17;;;;;;;14.40;13.90;;;30.40;64.10;;;;;;5011550;28;20486;-74
2021/07/10 12:17:45;;;;;;;14.10;13.60;;;30.50;63.30;;;;;;5011812;28;20450;-75
2021/07/10 12:20:14;;;;;;;15.83;15.00;;;30.30;62.80;;;;;;5011722;28;20816;-74
2021/07/10 12:22:57;;;;;;;15.00;14.30;;;29.90;63.00;;;;;;5011644;28;20500;-75
2021/07/10 12:25:26;;;;;;;14.27;13.77;;;29.90;63.30;;;;;;5011584;28;20453;-75
2021/07/10 12:27:57;;;;;;;14.13;13.63;;;29.60;65.30;;;;;;5011393;28;20454;-74
2021/07/10 12:30:39;;;;;;;15.80;14.83;;;29.40;65.00;;;;;;5011574;28;20481;-74
2021/07/10 12:33:25;;;;;;;14.90;14.40;;;29.10;66.40;;;;;;5011357;28;20508;-75
2021/07/10 12:36:04;;;;;;;15.10;14.60;;;29.40;67.50;;;;;;5011141;28;20493;-75
2021/07/10 12:38:32;;;;;;;14.53;13.93;;;30.80;62.50;;;;;;5011249;28;20453;-75